sensor_id;sensor_type;location;lat;lon;timestamp;temperature;humidity
5711;DHT22;61291;52.524;13.422;2023-08-20T00:01:25;25.20;99.90
5711;DHT22;61291;52.524;13.422;2023-08-20T00:03:52;25.20;99.90
5711;DHT22;61291;52.524;13.422;2023-08-20T00:06:19;25.10;99.90
5711;DHT22;61291;52.524;13.422;2023-08-20T00:08:44;25.10;99.90
5711;DHT22;61291;52.524;13.422;2023-08-20T00:11:12;25.00;99.90
5711;DHT22;61291;52.524;13.422;2023-08-20T00:13:37;24.90;99.90
5711;DHT22;61291;52.524;13.422;2023-08-20T00:16:03;24.90;99.90
5711;DHT22;61291;52.524;13.422;2023-08-20T00:18:29;24.90;99.90
5711;DHT22;61291;52.524;13.422;2023-08-20T00:20:54;24.90;99.90
5711;DHT22;61291;52.524;13.422;2023-08-20T00:23:21;24.80;99.90
5711;DHT22;61291;52.524;13.422;2023-08-20T00:25:46;24.80;99.90
5711;DHT22;61291;52.524;13.422;2023-08-20T00:28:12;24.80;99.90
5711;DHT22;61291;52.524;13.422;2023-08-20T00:30:37;24.80;99.90
5711;DHT22;61291;52.524;13.422;2023-08-20T00:33:03;24.70;99.90
5711;DHT22;61291;52.524;13.422;2023-08-20T00:35:28;24.70;99.90
5711;DHT22;61291;52.524;13.422;2023-08-20T00:37:54;24.70;99.90
5711;DHT22;61291;52.524;13.422;2023-08-20T00:40:20;24.70;99.90
5711;DHT22;61291;52.524;13.422;2023-08-20T00:42:45;24.70;99.90
5711;DHT22;61291;52.524;13.422;2023-08-20T00:45:11;24.60;99.90
5711;DHT22;61291;52.524;13.422;2023-08-20T00:47:37;24.60;99.90
5711;DHT22;61291;52.524;13.422;2023-08-20T00:50:04;24.50;99.90
5711;DHT22;61291;52.524;13.422;2023-08-20T00:52:34;24.60;99.90
5711;DHT22;61291;52.524;13.422;2023-08-20T00:55:01;24.60;99.90
5711;DHT22;61291;52.524;13.422;2023-08-20T00:57:30;24.60;99.90
5711;DHT22;61291;52.524;13.422;2023-08-20T00:59:56;24.70;99.90
5711;DHT22;61291;52.524;13.422;2023-08-20T01:02:22;24.80;99.90
5711;DHT22;61291;52.524;13.422;2023-08-20T01:04:48;24.80;99.90
5711;DHT22;61291;52.524;13.422;2023-08-20T01:07:27;24.90;99.90
5711;DHT22;61291;52.524;13.422;2023-08-20T01:12:50;24.90;99.90
5711;DHT22;61291;52.524;13.422;2023-08-20T01:15:16;24.90;99.90
5711;DHT22;61291;52.524;13.422;2023-08-20T01:17:42;24.90;99.90
5711;DHT22;61291;52.524;13.422;2023-08-20T01:20:09;24.90;99.90
5711;DHT22;61291;52.524;13.422;2023-08-20T01:22:51;24.90;99.90
5711;DHT22;61291;52.524;13.422;2023-08-20T01:30:50;24.60;99.90
5711;DHT22;61291;52.524;13.422;2023-08-20T01:33:17;24.50;99.90
5711;DHT22;61291;52.524;13.422;2023-08-20T01:35:43;24.40;99.90
5711;DHT22;61291;52.524;13.422;2023-08-20T01:38:09;24.40;99.90
5711;DHT22;61291;52.524;13.422;2023-08-20T01:40:34;24.30;99.90
5711;DHT22;61291;52.524;13.422;2023-08-20T01:43:00;24.30;99.90
5711;DHT22;61291;52.524;13.422;2023-08-20T01:45:25;24.20;99.90
5711;DHT22;61291;52.524;13.422;2023-08-20T01:47:51;24.20;99.90
5711;DHT22;61291;52.524;13.422;2023-08-20T01:50:17;24.10;99.90
5711;DHT22;61291;52.524;13.422;2023-08-20T01:52:42;24.10;99.90
5711;DHT22;61291;52.524;13.422;2023-08-20T01:55:08;24.20;99.90
5711;DHT22;61291;52.524;13.422;2023-08-20T01:57:33;24.10;99.90
5711;DHT22;61291;52.524;13.422;2023-08-20T01:59:59;24.00;99.90
5711;DHT22;61291;52.524;13.422;2023-08-20T02:02:24;23.90;99.90
5711;DHT22;61291;52.524;13.422;2023-08-20T02:04:50;23.90;99.90
5711;DHT22;61291;52.524;13.422;2023-08-20T02:07:16;23.90;99.90
5711;DHT22;61291;52.524;13.422;2023-08-20T02:09:41;23.80;99.90
5711;DHT22;61291;52.524;13.422;2023-08-20T02:12:07;23.80;99.90
5711;DHT22;61291;52.524;13.422;2023-08-20T02:14:32;23.80;99.90
5711;DHT22;61291;52.524;13.422;2023-08-20T02:17:01;23.80;99.90
5711;DHT22;61291;52.524;13.422;2023-08-20T02:19:26;23.80;99.90
5711;DHT22;61291;52.524;13.422;2023-08-20T02:21:53;23.70;99.90
5711;DHT22;61291;52.524;13.422;2023-08-20T02:24:18;23.60;99.90
5711;DHT22;61291;52.524;13.422;2023-08-20T02:26:43;23.50;99.90
5711;DHT22;61291;52.524;13.422;2023-08-20T02:29:09;23.50;99.90
5711;DHT22;61291;52.524;13.422;2023-08-20T02:31:35;23.50;99.90
5711;DHT22;61291;52.524;13.422;2023-08-20T02:34:00;23.40;99.90
5711;DHT22;61291;52.524;13.422;2023-08-20T02:36:26;23.40;99.90
5711;DHT22;61291;52.524;13.422;2023-08-20T02:38:51;23.40;99.90
5711;DHT22;61291;52.524;13.422;2023-08-20T02:41:17;23.30;99.90
5711;DHT22;61291;52.524;13.422;2023-08-20T02:43:43;23.30;99.90
5711;DHT22;61291;52.524;13.422;2023-08-20T02:46:08;23.30;99.90
5711;DHT22;61291;52.524;13.422;2023-08-20T02:48:33;23.20;99.90
5711;DHT22;61291;52.524;13.422;2023-08-20T02:50:59;23.20;99.90
5711;DHT22;61291;52.524;13.422;2023-08-20T02:53:24;23.20;99.90
5711;DHT22;61291;52.524;13.422;2023-08-20T02:55:50;23.20;99.90
5711;DHT22;61291;52.524;13.422;2023-08-20T02:58:15;23.20;99.90
5711;DHT22;61291;52.524;13.422;2023-08-20T03:00:41;23.10;99.90
5711;DHT22;61291;52.524;13.422;2023-08-20T03:03:10;23.10;99.90
5711;DHT22;61291;52.524;13.422;2023-08-20T03:05:36;23.00;99.90
5711;DHT22;61291;52.524;13.422;2023-08-20T03:08:02;23.00;99.90
5711;DHT22;61291;52.524;13.422;2023-08-20T03:10:31;22.90;99.90
5711;DHT22;61291;52.524;13.422;2023-08-20T03:13:00;22.90;99.90
5711;DHT22;61291;52.524;13.422;2023-08-20T03:15:27;22.90;99.90
5711;DHT22;61291;52.524;13.422;2023-08-20T03:17:52;22.90;99.90
5711;DHT22;61291;52.524;13.422;2023-08-20T03:20:18;22.90;99.90
5711;DHT22;61291;52.524;13.422;2023-08-20T03:22:43;22.90;99.90
5711;DHT22;61291;52.524;13.422;2023-08-20T03:25:09;22.80;99.90
5711;DHT22;61291;52.524;13.422;2023-08-20T03:27:34;22.80;99.90
5711;DHT22;61291;52.524;13.422;2023-08-20T03:30:00;22.70;99.90
5711;DHT22;61291;52.524;13.422;2023-08-20T03:32:26;22.60;99.90
5711;DHT22;61291;52.524;13.422;2023-08-20T03:34:51;22.50;99.90
5711;DHT22;61291;52.524;13.422;2023-08-20T03:37:18;22.50;99.90
5711;DHT22;61291;52.524;13.422;2023-08-20T03:39:44;22.50;99.90
5711;DHT22;61291;52.524;13.422;2023-08-20T03:42:09;22.50;99.90
5711;DHT22;61291;52.524;13.422;2023-08-20T03:44:35;22.40;99.90
5711;DHT22;61291;52.524;13.422;2023-08-20T03:47:00;22.40;99.90
5711;DHT22;61291;52.524;13.422;2023-08-20T03:49:25;22.40;99.90
5711;DHT22;61291;52.524;13.422;2023-08-20T03:51:51;22.40;99.90
5711;DHT22;61291;52.524;13.422;2023-08-20T03:54:16;22.40;99.90
5711;DHT22;61291;52.524;13.422;2023-08-20T03:56:42;22.40;99.90
5711;DHT22;61291;52.524;13.422;2023-08-20T03:59:07;22.40;99.90
5711;DHT22;61291;52.524;13.422;2023-08-20T04:01:34;22.40;99.90
5711;DHT22;61291;52.524;13.422;2023-08-20T04:04:01;22.40;99.90
5711;DHT22;61291;52.524;13.422;2023-08-20T04:06:26;22.40;99.90
5711;DHT22;61291;52.524;13.422;2023-08-20T04:08:52;22.30;99.90
5711;DHT22;61291;52.524;13.422;2023-08-20T04:11:17;22.30;99.90
5711;DHT22;61291;52.524;13.422;2023-08-20T04:13:43;22.30;99.90
5711;DHT22;61291;52.524;13.422;2023-08-20T04:16:09;22.30;99.90
5711;DHT22;61291;52.524;13.422;2023-08-20T04:18:34;22.30;99.90
5711;DHT22;61291;52.524;13.422;2023-08-20T04:21:00;22.30;99.90
5711;DHT22;61291;52.524;13.422;2023-08-20T04:23:25;22.30;99.90
5711;DHT22;61291;52.524;13.422;2023-08-20T04:25:52;22.40;99.90
5711;DHT22;61291;52.524;13.422;2023-08-20T04:28:17;22.50;99.90
5711;DHT22;61291;52.524;13.422;2023-08-20T04:30:43;22.50;99.90
5711;DHT22;61291;52.524;13.422;2023-08-20T04:33:09;22.50;99.90
5711;DHT22;61291;52.524;13.422;2023-08-20T04:35:35;22.60;99.90
5711;DHT22;61291;52.524;13.422;2023-08-20T04:38:01;22.70;99.90
5711;DHT22;61291;52.524;13.422;2023-08-20T04:40:26;22.70;99.90
5711;DHT22;61291;52.524;13.422;2023-08-20T04:42:52;22.80;99.90
5711;DHT22;61291;52.524;13.422;2023-08-20T04:45:17;22.80;99.90
5711;DHT22;61291;52.524;13.422;2023-08-20T04:47:46;22.90;99.90
5711;DHT22;61291;52.524;13.422;2023-08-20T04:50:12;22.90;99.90
5711;DHT22;61291;52.524;13.422;2023-08-20T04:52:41;22.90;99.90
5711;DHT22;61291;52.524;13.422;2023-08-20T04:55:06;23.00;99.90
5711;DHT22;61291;52.524;13.422;2023-08-20T04:57:33;23.10;99.90
5711;DHT22;61291;52.524;13.422;2023-08-20T04:59:59;23.20;99.90
5711;DHT22;61291;52.524;13.422;2023-08-20T05:02:24;23.20;99.90
5711;DHT22;61291;52.524;13.422;2023-08-20T05:04:50;23.30;99.90
5711;DHT22;61291;52.524;13.422;2023-08-20T05:07:15;23.30;99.90
5711;DHT22;61291;52.524;13.422;2023-08-20T05:09:41;23.40;99.90
5711;DHT22;61291;52.524;13.422;2023-08-20T05:12:07;23.50;99.90
5711;DHT22;61291;52.524;13.422;2023-08-20T05:14:32;23.60;99.90
5711;DHT22;61291;52.524;13.422;2023-08-20T05:16:58;23.70;99.90
5711;DHT22;61291;52.524;13.422;2023-08-20T05:19:24;23.70;99.90
5711;DHT22;61291;52.524;13.422;2023-08-20T05:21:49;23.90;99.90
5711;DHT22;61291;52.524;13.422;2023-08-20T05:24:15;24.00;99.90
5711;DHT22;61291;52.524;13.422;2023-08-20T05:26:40;24.20;99.90
5711;DHT22;61291;52.524;13.422;2023-08-20T05:29:06;24.40;99.90
5711;DHT22;61291;52.524;13.422;2023-08-20T05:31:31;24.70;99.90
5711;DHT22;61291;52.524;13.422;2023-08-20T05:33:57;24.90;99.90
5711;DHT22;61291;52.524;13.422;2023-08-20T05:36:23;25.10;99.90
5711;DHT22;61291;52.524;13.422;2023-08-20T05:38:49;25.30;99.90
5711;DHT22;61291;52.524;13.422;2023-08-20T05:41:14;25.30;99.90
5711;DHT22;61291;52.524;13.422;2023-08-20T05:43:40;25.30;99.90
5711;DHT22;61291;52.524;13.422;2023-08-20T05:46:05;25.60;99.90
5711;DHT22;61291;52.524;13.422;2023-08-20T05:48:31;25.80;99.90
5711;DHT22;61291;52.524;13.422;2023-08-20T05:50:56;26.10;99.90
5711;DHT22;61291;52.524;13.422;2023-08-20T05:53:22;26.10;99.90
5711;DHT22;61291;52.524;13.422;2023-08-20T05:55:48;26.00;99.90
5711;DHT22;61291;52.524;13.422;2023-08-20T05:58:13;26.00;99.90
5711;DHT22;61291;52.524;13.422;2023-08-20T06:00:39;26.20;99.90
5711;DHT22;61291;52.524;13.422;2023-08-20T06:03:05;26.70;99.90
5711;DHT22;61291;52.524;13.422;2023-08-20T06:05:33;26.90;99.90
5711;DHT22;61291;52.524;13.422;2023-08-20T06:07:58;27.50;99.90
5711;DHT22;61291;52.524;13.422;2023-08-20T06:10:23;27.90;99.90
5711;DHT22;61291;52.524;13.422;2023-08-20T06:12:49;27.60;99.90
5711;DHT22;61291;52.524;13.422;2023-08-20T06:15:14;27.20;99.90
5711;DHT22;61291;52.524;13.422;2023-08-20T06:17:40;27.30;99.90
5711;DHT22;61291;52.524;13.422;2023-08-20T06:20:06;27.20;99.90
5711;DHT22;61291;52.524;13.422;2023-08-20T06:22:33;26.80;99.90
5711;DHT22;61291;52.524;13.422;2023-08-20T06:24:59;28.00;99.90
5711;DHT22;61291;52.524;13.422;2023-08-20T06:27:24;28.10;99.90
5711;DHT22;61291;52.524;13.422;2023-08-20T06:29:50;27.90;99.90
5711;DHT22;61291;52.524;13.422;2023-08-20T06:32:15;27.50;99.90
5711;DHT22;61291;52.524;13.422;2023-08-20T06:34:41;26.90;99.90
5711;DHT22;61291;52.524;13.422;2023-08-20T06:37:06;26.90;99.90
5711;DHT22;61291;52.524;13.422;2023-08-20T06:39:31;27.00;99.90
5711;DHT22;61291;52.524;13.422;2023-08-20T06:41:57;28.10;99.90
5711;DHT22;61291;52.524;13.422;2023-08-20T06:44:22;28.40;99.90
5711;DHT22;61291;52.524;13.422;2023-08-20T06:46:48;28.30;99.90
5711;DHT22;61291;52.524;13.422;2023-08-20T06:49:13;28.70;99.90
5711;DHT22;61291;52.524;13.422;2023-08-20T06:51:39;28.30;99.90
5711;DHT22;61291;52.524;13.422;2023-08-20T06:54:05;28.10;99.90
5711;DHT22;61291;52.524;13.422;2023-08-20T06:56:33;28.20;99.90
5711;DHT22;61291;52.524;13.422;2023-08-20T06:59:00;28.10;99.90
5711;DHT22;61291;52.524;13.422;2023-08-20T07:01:27;27.70;99.90
5711;DHT22;61291;52.524;13.422;2023-08-20T07:03:52;27.20;99.90
5711;DHT22;61291;52.524;13.422;2023-08-20T07:06:17;26.90;99.90
5711;DHT22;61291;52.524;13.422;2023-08-20T07:08:44;26.50;99.90
5711;DHT22;61291;52.524;13.422;2023-08-20T07:11:09;26.40;99.90
5711;DHT22;61291;52.524;13.422;2023-08-20T07:13:35;26.90;99.90
5711;DHT22;61291;52.524;13.422;2023-08-20T07:16:00;26.90;99.90
5711;DHT22;61291;52.524;13.422;2023-08-20T07:18:26;26.50;99.90
5711;DHT22;61291;52.524;13.422;2023-08-20T07:20:51;26.30;99.90
5711;DHT22;61291;52.524;13.422;2023-08-20T07:23:17;26.20;99.90
5711;DHT22;61291;52.524;13.422;2023-08-20T07:25:43;26.60;99.90
5711;DHT22;61291;52.524;13.422;2023-08-20T07:28:10;26.50;99.90
5711;DHT22;61291;52.524;13.422;2023-08-20T07:30:36;26.60;99.90
5711;DHT22;61291;52.524;13.422;2023-08-20T07:33:03;26.70;99.90
5711;DHT22;61291;52.524;13.422;2023-08-20T07:35:28;26.90;99.90
5711;DHT22;61291;52.524;13.422;2023-08-20T07:37:54;27.00;99.90
5711;DHT22;61291;52.524;13.422;2023-08-20T07:40:20;27.60;99.90
5711;DHT22;61291;52.524;13.422;2023-08-20T07:42:45;28.10;99.90
5711;DHT22;61291;52.524;13.422;2023-08-20T07:45:11;28.80;99.90
5711;DHT22;61291;52.524;13.422;2023-08-20T07:47:37;29.40;99.90
5711;DHT22;61291;52.524;13.422;2023-08-20T07:50:03;28.50;99.90
5711;DHT22;61291;52.524;13.422;2023-08-20T07:52:30;27.60;99.90
5711;DHT22;61291;52.524;13.422;2023-08-20T07:54:55;27.00;99.90
5711;DHT22;61291;52.524;13.422;2023-08-20T07:57:21;26.30;99.90
5711;DHT22;61291;52.524;13.422;2023-08-20T07:59:48;26.10;99.90
5711;DHT22;61291;52.524;13.422;2023-08-20T08:02:14;26.90;99.90
5711;DHT22;61291;52.524;13.422;2023-08-20T08:04:39;27.90;99.90
5711;DHT22;61291;52.524;13.422;2023-08-20T08:07:05;28.60;99.90
5711;DHT22;61291;52.524;13.422;2023-08-20T08:09:31;28.70;99.90
5711;DHT22;61291;52.524;13.422;2023-08-20T08:11:58;28.90;99.90
5711;DHT22;61291;52.524;13.422;2023-08-20T08:14:24;29.20;99.90
5711;DHT22;61291;52.524;13.422;2023-08-20T08:16:50;29.10;99.90
5711;DHT22;61291;52.524;13.422;2023-08-20T08:19:16;28.70;99.90
5711;DHT22;61291;52.524;13.422;2023-08-20T08:21:43;28.30;99.90
5711;DHT22;61291;52.524;13.422;2023-08-20T08:24:09;28.30;99.90
5711;DHT22;61291;52.524;13.422;2023-08-20T08:26:35;27.80;99.90
5711;DHT22;61291;52.524;13.422;2023-08-20T08:29:02;27.40;99.90
5711;DHT22;61291;52.524;13.422;2023-08-20T08:31:27;27.40;99.90
5711;DHT22;61291;52.524;13.422;2023-08-20T08:33:53;27.20;99.90
5711;DHT22;61291;52.524;13.422;2023-08-20T08:36:18;27.30;99.90
5711;DHT22;61291;52.524;13.422;2023-08-20T08:38:44;27.40;99.90
5711;DHT22;61291;52.524;13.422;2023-08-20T08:41:12;27.60;99.90
5711;DHT22;61291;52.524;13.422;2023-08-20T08:43:39;27.70;99.90
5711;DHT22;61291;52.524;13.422;2023-08-20T08:46:12;27.60;99.90
5711;DHT22;61291;52.524;13.422;2023-08-20T08:48:40;27.90;99.90
5711;DHT22;61291;52.524;13.422;2023-08-20T08:51:06;28.70;99.90
5711;DHT22;61291;52.524;13.422;2023-08-20T08:53:32;29.70;99.90
5711;DHT22;61291;52.524;13.422;2023-08-20T08:55:59;30.40;99.90
5711;DHT22;61291;52.524;13.422;2023-08-20T08:58:25;30.80;99.90
5711;DHT22;61291;52.524;13.422;2023-08-20T09:00:51;31.10;99.90
5711;DHT22;61291;52.524;13.422;2023-08-20T09:03:16;31.60;99.90
5711;DHT22;61291;52.524;13.422;2023-08-20T09:05:46;32.30;99.90
5711;DHT22;61291;52.524;13.422;2023-08-20T09:08:26;32.90;99.90
5711;DHT22;61291;52.524;13.422;2023-08-20T09:10:55;32.60;98.40
5711;DHT22;61291;52.524;13.422;2023-08-20T09:13:25;32.00;98.10
5711;DHT22;61291;52.524;13.422;2023-08-20T09:15:52;31.90;97.80
5711;DHT22;61291;52.524;13.422;2023-08-20T09:18:18;32.30;97.80
5711;DHT22;61291;52.524;13.422;2023-08-20T09:20:43;32.70;97.10
5711;DHT22;61291;52.524;13.422;2023-08-20T09:23:12;32.80;96.40
5711;DHT22;61291;52.524;13.422;2023-08-20T09:25:41;32.80;96.00
5711;DHT22;61291;52.524;13.422;2023-08-20T09:28:07;32.40;95.80
5711;DHT22;61291;52.524;13.422;2023-08-20T09:30:33;32.00;95.50
5711;DHT22;61291;52.524;13.422;2023-08-20T09:33:11;31.40;95.80
5711;DHT22;61291;52.524;13.422;2023-08-20T09:35:38;30.50;96.20
5711;DHT22;61291;52.524;13.422;2023-08-20T09:38:13;30.10;97.10
5711;DHT22;61291;52.524;13.422;2023-08-20T09:40:38;29.70;98.00
5711;DHT22;61291;52.524;13.422;2023-08-20T09:43:05;29.60;98.30
5711;DHT22;61291;52.524;13.422;2023-08-20T09:45:33;29.30;99.00
5711;DHT22;61291;52.524;13.422;2023-08-20T09:48:00;29.20;99.30
5711;DHT22;61291;52.524;13.422;2023-08-20T09:50:30;29.20;99.60
5711;DHT22;61291;52.524;13.422;2023-08-20T09:53:06;29.30;99.80
5711;DHT22;61291;52.524;13.422;2023-08-20T09:55:38;29.50;99.70
5711;DHT22;61291;52.524;13.422;2023-08-20T09:58:05;29.50;99.50
5711;DHT22;61291;52.524;13.422;2023-08-20T10:00:32;29.30;98.90
5711;DHT22;61291;52.524;13.422;2023-08-20T10:02:59;29.00;98.70
5711;DHT22;61291;52.524;13.422;2023-08-20T10:05:25;28.80;98.80
5711;DHT22;61291;52.524;13.422;2023-08-20T10:07:51;28.70;98.90
5711;DHT22;61291;52.524;13.422;2023-08-20T10:10:17;28.50;98.80
5711;DHT22;61291;52.524;13.422;2023-08-20T10:12:43;28.30;98.90
5711;DHT22;61291;52.524;13.422;2023-08-20T10:15:12;27.90;99.20
5711;DHT22;61291;52.524;13.422;2023-08-20T10:17:40;27.80;99.60
5711;DHT22;61291;52.524;13.422;2023-08-20T10:20:06;27.70;99.90
5711;DHT22;61291;52.524;13.422;2023-08-20T10:22:40;27.70;99.90
5711;DHT22;61291;52.524;13.422;2023-08-20T10:25:23;28.00;99.90
5711;DHT22;61291;52.524;13.422;2023-08-20T10:27:49;27.80;98.90
5711;DHT22;61291;52.524;13.422;2023-08-20T10:30:19;27.90;98.80
5711;DHT22;61291;52.524;13.422;2023-08-20T10:32:57;27.80;98.30
5711;DHT22;61291;52.524;13.422;2023-08-20T10:38:13;27.70;97.10
5711;DHT22;61291;52.524;13.422;2023-08-20T10:40:55;27.80;96.90
5711;DHT22;61291;52.524;13.422;2023-08-20T10:43:36;27.90;96.60
5711;DHT22;61291;52.524;13.422;2023-08-20T10:48:35;27.70;96.30
5711;DHT22;61291;52.524;13.422;2023-08-20T10:51:11;27.50;95.90
5711;DHT22;61291;52.524;13.422;2023-08-20T10:53:37;27.50;96.20
5711;DHT22;61291;52.524;13.422;2023-08-20T10:58:41;27.50;95.50
5711;DHT22;61291;52.524;13.422;2023-08-20T11:01:20;27.60;95.70
5711;DHT22;61291;52.524;13.422;2023-08-20T11:03:48;27.60;95.30
5711;DHT22;61291;52.524;13.422;2023-08-20T11:06:14;27.60;95.30
5711;DHT22;61291;52.524;13.422;2023-08-20T11:08:40;27.80;95.30
5711;DHT22;61291;52.524;13.422;2023-08-20T11:11:07;27.90;95.00
5711;DHT22;61291;52.524;13.422;2023-08-20T11:13:33;28.00;94.50
5711;DHT22;61291;52.524;13.422;2023-08-20T11:16:00;27.90;94.30
5711;DHT22;61291;52.524;13.422;2023-08-20T11:18:25;28.10;94.20
5711;DHT22;61291;52.524;13.422;2023-08-20T11:20:51;28.10;94.10
5711;DHT22;61291;52.524;13.422;2023-08-20T11:23:17;28.20;94.10
5711;DHT22;61291;52.524;13.422;2023-08-20T11:25:43;28.20;93.70
5711;DHT22;61291;52.524;13.422;2023-08-20T11:28:09;28.20;93.70
5711;DHT22;61291;52.524;13.422;2023-08-20T11:30:35;28.20;93.50
5711;DHT22;61291;52.524;13.422;2023-08-20T11:33:00;28.30;93.50
5711;DHT22;61291;52.524;13.422;2023-08-20T11:35:26;28.10;93.10
5711;DHT22;61291;52.524;13.422;2023-08-20T11:37:52;28.00;92.90
5711;DHT22;61291;52.524;13.422;2023-08-20T11:40:20;28.00;93.00
5711;DHT22;61291;52.524;13.422;2023-08-20T11:42:46;28.10;92.80
5711;DHT22;61291;52.524;13.422;2023-08-20T11:45:11;28.10;93.00
5711;DHT22;61291;52.524;13.422;2023-08-20T11:47:43;28.20;92.70
5711;DHT22;61291;52.524;13.422;2023-08-20T11:50:09;28.30;92.80
5711;DHT22;61291;52.524;13.422;2023-08-20T11:52:36;28.30;92.00
5711;DHT22;61291;52.524;13.422;2023-08-20T11:55:02;28.10;91.60
5711;DHT22;61291;52.524;13.422;2023-08-20T11:57:29;28.10;91.70
5711;DHT22;61291;52.524;13.422;2023-08-20T11:59:55;28.20;92.00
5711;DHT22;61291;52.524;13.422;2023-08-20T12:02:27;28.30;92.30
5711;DHT22;61291;52.524;13.422;2023-08-20T12:04:55;28.30;92.50
5711;DHT22;61291;52.524;13.422;2023-08-20T12:07:25;28.40;92.60
5711;DHT22;61291;52.524;13.422;2023-08-20T12:09:51;28.40;92.50
5711;DHT22;61291;52.524;13.422;2023-08-20T12:12:19;28.50;92.50
5711;DHT22;61291;52.524;13.422;2023-08-20T12:14:44;28.50;92.30
5711;DHT22;61291;52.524;13.422;2023-08-20T12:17:10;28.60;91.90
5711;DHT22;61291;52.524;13.422;2023-08-20T12:19:35;28.60;91.80
5711;DHT22;61291;52.524;13.422;2023-08-20T12:22:01;28.70;91.70
5711;DHT22;61291;52.524;13.422;2023-08-20T12:24:27;28.70;91.70
5711;DHT22;61291;52.524;13.422;2023-08-20T12:26:53;28.70;91.70
5711;DHT22;61291;52.524;13.422;2023-08-20T12:29:18;28.60;91.30
5711;DHT22;61291;52.524;13.422;2023-08-20T12:31:45;28.40;91.10
5711;DHT22;61291;52.524;13.422;2023-08-20T12:34:10;28.50;91.20
5711;DHT22;61291;52.524;13.422;2023-08-20T12:36:36;28.50;90.70
5711;DHT22;61291;52.524;13.422;2023-08-20T12:39:02;28.50;90.70
5711;DHT22;61291;52.524;13.422;2023-08-20T12:41:29;28.40;90.40
5711;DHT22;61291;52.524;13.422;2023-08-20T12:43:54;28.40;90.00
5711;DHT22;61291;52.524;13.422;2023-08-20T12:46:24;28.40;90.00
5711;DHT22;61291;52.524;13.422;2023-08-20T12:48:50;28.40;89.40
5711;DHT22;61291;52.524;13.422;2023-08-20T12:51:16;28.50;89.80
5711;DHT22;61291;52.524;13.422;2023-08-20T12:53:43;28.60;90.00
5711;DHT22;61291;52.524;13.422;2023-08-20T12:56:08;28.60;88.70
5711;DHT22;61291;52.524;13.422;2023-08-20T12:58:34;28.60;88.20
5711;DHT22;61291;52.524;13.422;2023-08-20T13:00:59;28.60;88.50
5711;DHT22;61291;52.524;13.422;2023-08-20T13:03:25;28.50;86.70
5711;DHT22;61291;52.524;13.422;2023-08-20T13:05:53;28.60;86.60
5711;DHT22;61291;52.524;13.422;2023-08-20T13:08:19;28.70;86.90
5711;DHT22;61291;52.524;13.422;2023-08-20T13:10:53;28.70;86.90
5711;DHT22;61291;52.524;13.422;2023-08-20T13:13:21;28.70;85.90
5711;DHT22;61291;52.524;13.422;2023-08-20T13:15:47;28.70;86.40
5711;DHT22;61291;52.524;13.422;2023-08-20T13:18:13;28.70;86.00
5711;DHT22;61291;52.524;13.422;2023-08-20T13:20:39;28.70;86.10
5711;DHT22;61291;52.524;13.422;2023-08-20T13:23:05;28.80;85.40
5711;DHT22;61291;52.524;13.422;2023-08-20T13:25:30;28.80;85.50
5711;DHT22;61291;52.524;13.422;2023-08-20T13:27:56;28.70;83.90
5711;DHT22;61291;52.524;13.422;2023-08-20T13:30:21;28.70;83.80
5711;DHT22;61291;52.524;13.422;2023-08-20T13:32:47;28.80;84.20
5711;DHT22;61291;52.524;13.422;2023-08-20T13:35:13;28.90;84.30
5711;DHT22;61291;52.524;13.422;2023-08-20T13:37:39;29.00;82.90
5711;DHT22;61291;52.524;13.422;2023-08-20T13:40:05;29.00;82.30
5711;DHT22;61291;52.524;13.422;2023-08-20T13:42:33;29.10;82.10
5711;DHT22;61291;52.524;13.422;2023-08-20T13:44:58;29.00;81.10
5711;DHT22;61291;52.524;13.422;2023-08-20T13:47:24;29.00;81.00
5711;DHT22;61291;52.524;13.422;2023-08-20T13:49:49;29.20;80.60
5711;DHT22;61291;52.524;13.422;2023-08-20T13:52:15;29.40;79.20
5711;DHT22;61291;52.524;13.422;2023-08-20T13:54:42;29.70;78.00
5711;DHT22;61291;52.524;13.422;2023-08-20T13:57:08;30.10;76.50
5711;DHT22;61291;52.524;13.422;2023-08-20T13:59:33;30.00;75.50
5711;DHT22;61291;52.524;13.422;2023-08-20T14:01:59;30.10;75.50
5711;DHT22;61291;52.524;13.422;2023-08-20T14:04:25;30.10;75.70
5711;DHT22;61291;52.524;13.422;2023-08-20T14:06:50;30.10;75.90
5711;DHT22;61291;52.524;13.422;2023-08-20T14:09:16;30.20;76.20
5711;DHT22;61291;52.524;13.422;2023-08-20T14:11:45;30.30;76.20
5711;DHT22;61291;52.524;13.422;2023-08-20T14:14:11;30.30;74.60
5711;DHT22;61291;52.524;13.422;2023-08-20T14:16:36;30.20;72.00
5711;DHT22;61291;52.524;13.422;2023-08-20T14:19:02;30.00;72.60
5711;DHT22;61291;52.524;13.422;2023-08-20T14:21:27;29.70;72.40
5711;DHT22;61291;52.524;13.422;2023-08-20T14:23:53;29.70;71.60
5711;DHT22;61291;52.524;13.422;2023-08-20T14:26:18;29.80;69.30
5711;DHT22;61291;52.524;13.422;2023-08-20T14:28:44;29.80;68.90
5711;DHT22;61291;52.524;13.422;2023-08-20T14:31:09;30.00;68.30
5711;DHT22;61291;52.524;13.422;2023-08-20T14:33:35;30.20;67.40
5711;DHT22;61291;52.524;13.422;2023-08-20T14:36:00;30.30;65.70
5711;DHT22;61291;52.524;13.422;2023-08-20T14:38:28;30.40;65.20
5711;DHT22;61291;52.524;13.422;2023-08-20T14:40:58;30.50;64.00
5711;DHT22;61291;52.524;13.422;2023-08-20T14:43:24;30.60;63.30
5711;DHT22;61291;52.524;13.422;2023-08-20T14:45:49;30.80;63.60
5711;DHT22;61291;52.524;13.422;2023-08-20T14:48:15;30.80;63.30
5711;DHT22;61291;52.524;13.422;2023-08-20T14:50:40;30.60;63.60
5711;DHT22;61291;52.524;13.422;2023-08-20T14:53:05;30.60;64.20
5711;DHT22;61291;52.524;13.422;2023-08-20T14:55:31;30.60;64.60
5711;DHT22;61291;52.524;13.422;2023-08-20T14:57:59;30.80;65.10
5711;DHT22;61291;52.524;13.422;2023-08-20T15:00:24;30.70;64.50
5711;DHT22;61291;52.524;13.422;2023-08-20T15:02:50;31.10;65.20
5711;DHT22;61291;52.524;13.422;2023-08-20T15:05:16;31.30;65.20
5711;DHT22;61291;52.524;13.422;2023-08-20T15:07:41;31.40;65.90
5711;DHT22;61291;52.524;13.422;2023-08-20T15:10:07;31.30;66.30
5711;DHT22;61291;52.524;13.422;2023-08-20T15:12:35;31.60;66.80
5711;DHT22;61291;52.524;13.422;2023-08-20T15:15:01;31.80;67.30
5711;DHT22;61291;52.524;13.422;2023-08-20T15:17:28;31.90;66.80
5711;DHT22;61291;52.524;13.422;2023-08-20T15:19:54;31.80;66.20
5711;DHT22;61291;52.524;13.422;2023-08-20T15:22:19;31.80;66.50
5711;DHT22;61291;52.524;13.422;2023-08-20T15:24:45;31.50;66.40
5711;DHT22;61291;52.524;13.422;2023-08-20T15:27:11;31.10;67.00
5711;DHT22;61291;52.524;13.422;2023-08-20T15:29:37;30.90;67.60
5711;DHT22;61291;52.524;13.422;2023-08-20T15:32:02;31.00;68.10
5711;DHT22;61291;52.524;13.422;2023-08-20T15:34:29;31.10;68.20
5711;DHT22;61291;52.524;13.422;2023-08-20T15:36:55;30.90;67.90
5711;DHT22;61291;52.524;13.422;2023-08-20T15:39:20;30.60;67.40
5711;DHT22;61291;52.524;13.422;2023-08-20T15:41:47;30.40;67.40